Time;durP1;ratioP1;P1;durP2;ratioP2;P2;SDS_P1;SDS_P2;PMS_P1;PMS_P2;Temp;Humidity;BMP_temperature;BMP_pressure;BME280_temperature;BME280_humidity;BME280_pressure;Samples;Min_cycle;Max_cycle;Signal;HPM_P1;HPM_P2
2024/02/10 00:00:19;;;;;;;1.70;1.50;;;;;;;3.34;75.56;97428.91;105062;1264;71008;-25
2024/02/10 00:10:27;;;;;;;2.20;1.50;;;;;;;2.59;77.84;97422.27;102700;1293;600184;-24
2024/02/10 00:20:33;;;;;;;4.70;2.20;;;;;;;3.11;76.19;97411.64;102653;1294;599407;-22
2024/02/10 00:23:04;;;;;;;2.00;1.70;;;;;;;2.95;76.37;97416.67;104864;1267;61138;-24
2024/02/10 00:25:32;;;;;;;3.00;1.80;;;;;;;2.70;77.47;97418.52;104866;1266;61162;-24
2024/02/10 00:35:44;;;;;;;1.70;1.60;;;;;;;3.13;76.42;97423.37;102720;1292;599974;-24
2024/02/10 00:38:14;;;;;;;3.90;2.40;;;;;;;2.90;76.79;97424.05;105086;1269;61177;-25
2024/02/10 00:40:42;;;;;;;3.40;2.40;;;;;;;2.73;77.85;97417.64;104830;1266;61249;-23
2024/02/10 00:43:12;;;;;;;3.10;1.90;;;;;;;3.34;76.22;97415.06;104869;1269;72182;-23
2024/02/10 00:45:42;;;;;;;5.00;2.90;;;;;;;3.56;74.99;97414.06;104854;1267;74336;-23
2024/02/10 00:48:10;;;;;;;4.50;2.90;;;;;;;3.35;75.32;97414.62;104721;1267;213575;-24
2024/02/10 00:50:38;;;;;;;4.00;3.30;;;;;;;3.14;75.96;97413.70;105171;1267;61179;-23
2024/02/10 00:53:08;;;;;;;5.70;3.30;;;;;;;2.89;76.74;97416.95;105176;1267;61170;-23
2024/02/10 00:55:36;;;;;;;3.40;2.00;;;;;;;2.82;77.63;97414.88;104900;1269;72192;-23
2024/02/10 00:58:06;;;;;;;4.00;2.90;;;;;;;3.39;76.04;97409.16;105017;1263;74310;-23
2024/02/10 01:00:36;;;;;;;3.60;2.10;;;;;;;3.52;75.21;97405.91;105125;1269;72677;-25
2024/02/10 01:03:08;;;;;;;4.90;2.60;;;;;;;3.34;75.48;97407.86;104804;1271;61190;-25
2024/02/10 01:05:37;;;;;;;2.90;2.30;;;;;;;3.15;76.04;97411.70;104826;1271;61144;-25
2024/02/10 01:08:06;;;;;;;3.90;3.00;;;;;;;2.81;77.22;97411.21;104912;1269;73041;-24
2024/02/10 01:10:35;;;;;;;3.90;2.60;;;;;;;3.00;77.69;97417.48;104970;1268;74419;-24
2024/02/10 01:13:03;;;;;;;2.50;1.90;;;;;;;3.49;75.93;97415.80;104856;1269;71423;-24
2024/02/10 01:15:32;;;;;;;6.00;3.30;;;;;;;3.52;75.35;97411.13;104896;1269;61176;-25
2024/02/10 01:18:01;;;;;;;2.90;2.10;;;;;;;3.31;75.73;97414.23;105070;1267;61193;-24
2024/02/10 01:28:06;;;;;;;2.20;1.70;;;;;;;3.41;76.79;97409.88;102637;1292;600147;-23
2024/02/10 01:30:34;;;;;;;4.20;2.30;;;;;;;3.46;75.99;97414.13;104824;1269;61285;-25
2024/02/10 01:33:02;;;;;;;5.40;3.90;;;;;;;3.43;75.68;97412.50;104829;1271;61151;-25
2024/02/10 01:43:07;;;;;;;8.50;2.80;;;;;;;3.15;77.95;97411.54;102719;1295;599966;-26
2024/02/10 01:45:37;;;;;;;5.20;3.60;;;;;;;3.34;76.87;97407.52;104821;1267;61500;-26
2024/02/10 01:48:08;;;;;;;6.40;3.20;;;;;;;3.19;76.97;97406.10;105077;1267;61205;-26
2024/02/10 01:58:17;;;;;;;4.00;2.90;;;;;;;3.23;78.03;97399.80;102648;1294;600090;-26
2024/02/10 02:00:45;;;;;;;6.10;4.00;;;;;;;3.26;77.33;97399.41;104851;1272;61175;-26
2024/02/10 02:03:13;;;;;;;6.50;4.10;;;;;;;3.08;77.76;97390.98;104835;1271;61171;-26
2024/02/10 02:05:41;;;;;;;7.90;4.20;;;;;;;2.86;78.39;97389.23;104834;1267;71043;-27
2024/02/10 02:08:10;;;;;;;5.90;3.70;;;;;;;2.64;78.98;97388.12;104834;1266;73066;-27
2024/02/10 02:18:16;;;;;;;8.40;5.10;;;;;;;3.22;77.54;97376.54;103007;1289;598836;-25
2024/02/10 02:20:47;;;;;;;2.10;1.90;;;;;;;2.99;78.04;97379.30;104914;1263;61177;-26
2024/02/10 02:23:18;;;;;;;7.90;4.60;;;;;;;2.67;79.18;97379.98;104904;1271;61142;-26
2024/02/10 02:25:49;;;;;;;4.80;2.90;;;;;;;2.67;79.92;97376.06;104848;1264;72235;-26
2024/02/10 02:28:18;;;;;;;6.40;3.40;;;;;;;3.27;78.16;97372.19;104786;1263;74300;-26
2024/02/10 02:30:46;;;;;;;4.60;3.50;;;;;;;3.38;77.03;97367.38;104413;1263;164085;-26
2024/02/10 02:33:14;;;;;;;6.00;3.90;;;;;;;3.22;77.32;97374.31;104949;1264;61070;-26
2024/02/10 02:35:43;;;;;;;8.00;4.80;;;;;;;2.91;78.44;97384.36;105153;1267;61310;-26
2024/02/10 02:38:14;;;;;;;7.10;3.40;;;;;;;2.66;79.35;97389.88;104823;1264;72211;-26
2024/02/10 02:40:42;;;;;;;6.70;4.60;;;;;;;2.90;79.39;97390.60;104947;1268;73133;-26
2024/02/10 02:43:12;;;;;;;9.70;3.50;;;;;;;3.30;78.02;97389.63;104816;1264;71782;-26
2024/02/10 02:45:44;;;;;;;7.10;5.40;;;;;;;3.39;77.25;97387.54;104972;1265;61155;-26
2024/02/10 02:48:12;;;;;;;6.50;3.60;;;;;;;3.17;77.56;97386.80;104961;1264;61136;-26
2024/02/10 02:58:20;;;;;;;5.20;3.10;;;;;;;3.44;77.89;97376.05;102741;1292;598947;-25
2024/02/10 03:00:48;;;;;;;10.10;5.00;;;;;;;3.35;77.46;97380.00;104868;1266;61146;-25
2024/02/10 03:10:51;;;;;;;5.20;3.40;;;;;;;2.93;79.50;97378.23;102688;1292;600128;-23
2024/02/10 03:20:57;;;;;;;8.70;4.80;;;;;;;3.37;76.96;97391.80;102933;1289;599984;-25
2024/02/10 03:23:27;;;;;;;8.40;5.00;;;;;;;3.08;77.68;97396.62;105061;1265;61177;-26
2024/02/10 03:25:59;;;;;;;6.50;3.90;;;;;;;3.06;78.79;97402.61;105104;1264;61157;-26
2024/02/10 03:36:30;;;;;;;9.80;4.60;;;;;;;3.34;77.07;97397.52;102585;1290;615740;-24
2024/02/10 03:39:01;;;;;;;8.80;4.80;;;;;;;3.11;77.48;97390.91;105192;1274;61114;-25
2024/02/10 03:41:28;;;;;;;5.90;3.50;;;;;;;3.03;78.32;97388.09;105206;1269;61177;-25
2024/02/10 03:43:55;;;;;;;6.80;3.90;;;;;;;3.58;77.47;97391.43;105160;1269;72704;-25
2024/02/10 03:46:22;;;;;;;7.40;4.70;;;;;;;3.95;75.36;97395.84;105144;1264;74402;-25
2024/02/10 03:48:52;;;;;;;5.80;3.80;;;;;;;3.67;76.08;97398.96;104972;1264;194576;-25
2024/02/10 03:51:19;;;;;;;7.00;4.80;;;;;;;3.37;76.87;97399.91;105018;1263;61097;-25
2024/02/10 03:53:46;;;;;;;11.10;5.50;;;;;;;3.15;77.63;97395.39;105039;1265;61174;-25
2024/02/10 03:56:13;;;;;;;7.30;4.30;;;;;;;2.83;78.65;97401.95;105187;1265;72002;-25
2024/02/10 03:58:43;;;;;;;8.00;3.70;;;;;;;2.88;79.43;97399.68;105253;1263;74601;-25
2024/02/10 04:01:13;;;;;;;6.40;4.00;;;;;;;3.48;77.81;97393.07;105157;1264;74194;-25
2024/02/10 04:03:47;;;;;;;7.20;4.00;;;;;;;3.60;76.61;97390.20;105188;1262;61070;-25
2024/02/10 04:06:15;;;;;;;12.20;6.40;;;;;;;3.46;76.88;97392.38;105213;1262;61148;-25
2024/02/10 04:08:46;;;;;;;5.30;3.10;;;;;;;3.22;77.45;97389.73;105175;1266;73028;-25
2024/02/10 04:11:14;;;;;;;7.70;5.20;;;;;;;2.93;78.45;97391.56;105162;1264;74322;-25
2024/02/10 04:13:42;;;;;;;7.70;4.10;;;;;;;2.80;79.69;97401.98;105191;1265;73238;-25
2024/02/10 04:16:10;;;;;;;5.70;3.70;;;;;;;3.36;78.19;97399.30;105142;1267;61087;-25
2024/02/10 04:18:41;;;;;;;7.70;4.50;;;;;;;3.55;77.07;97398.32;105231;1269;61172;-25
2024/02/10 04:21:09;;;;;;;10.00;5.10;;;;;;;3.40;77.24;97402.57;105037;1269;73041;-25
2024/02/10 04:23:39;;;;;;;7.40;4.50;;;;;;;3.19;77.94;97404.37;105119;1270;72960;-25
2024/02/10 04:26:06;;;;;;;6.80;4.10;;;;;;;2.96;78.80;97406.67;105124;1264;72381;-25
2024/02/10 04:28:33;;;;;;;5.60;3.70;;;;;;;2.79;79.66;97401.29;105159;1267;61108;-25
2024/02/10 04:31:01;;;;;;;8.40;5.00;;;;;;;3.28;78.58;97405.89;105170;1262;61705;-25
2024/02/10 04:33:28;;;;;;;8.00;4.20;;;;;;;3.72;76.57;97399.55;105174;1264;72970;-25
2024/02/10 04:35:55;;;;;;;8.60;5.00;;;;;;;3.73;76.20;97396.95;105305;1267;74232;-25
2024/02/10 04:38:23;;;;;;;6.50;3.40;;;;;;;3.57;76.30;97398.85;105234;1264;72669;-25
2024/02/10 04:40:50;;;;;;;9.60;5.10;;;;;;;3.32;76.97;97392.77;105101;1262;61610;-25
2024/02/10 04:43:19;;;;;;;4.50;2.50;;;;;;;3.08;78.01;97391.32;105080;1267;61170;-25
2024/02/10 04:45:48;;;;;;;7.60;4.30;;;;;;;3.50;77.34;97390.98;105084;1270;73065;-25
2024/02/10 04:48:19;;;;;;;7.70;4.00;;;;;;;3.97;75.55;97389.55;105217;1264;74220;-25
2024/02/10 04:50:46;;;;;;;6.90;4.00;;;;;;;3.96;75.12;97395.60;105165;1264;73190;-25
2024/02/10 04:53:15;;;;;;;5.70;3.90;;;;;;;3.80;75.30;97399.98;105193;1264;61076;-25
2024/02/10 04:55:44;;;;;;;6.10;3.30;;;;;;;3.48;76.29;97394.08;104882;1269;61231;-25
2024/02/10 04:58:12;;;;;;;9.70;5.00;;;;;;;3.15;77.45;97397.66;105000;1269;71596;-25
2024/02/10 05:00:40;;;;;;;6.50;4.20;;;;;;;3.47;77.53;97403.58;104900;1264;73998;-25
2024/02/10 05:03:07;;;;;;;9.80;5.20;;;;;;;3.89;75.96;97405.98;104990;1264;72463;-25
2024/02/10 05:05:34;;;;;;;5.90;3.10;;;;;;;3.91;75.43;97404.11;105045;1264;61092;-25
2024/02/10 05:08:01;;;;;;;8.80;4.20;;;;;;;3.66;75.98;97409.80;104896;1266;61059;-25
2024/02/10 05:10:29;;;;;;;7.90;3.70;;;;;;;3.40;76.80;97413.37;105063;1263;73057;-25
2024/02/10 05:12:56;;;;;;;6.70;3.90;;;;;;;3.09;78.04;97410.25;105156;1264;74208;-25
2024/02/10 05:15:25;;;;;;;8.30;5.20;;;;;;;3.59;77.30;97410.73;105170;1269;72633;-25
2024/02/10 05:17:53;;;;;;;4.50;2.80;;;;;;;3.88;75.90;97412.89;104960;1270;61074;-25
2024/02/10 05:20:24;;;;;;;6.80;3.60;;;;;;;3.74;75.93;97412.30;104949;1268;61072;-25
2024/02/10 05:22:52;;;;;;;7.80;5.40;;;;;;;3.51;76.68;97420.10;104933;1264;73004;-25
2024/02/10 05:25:22;;;;;;;7.60;4.60;;;;;;;3.32;77.14;97426.32;104910;1272;74455;-24
2024/02/10 05:27:50;;;;;;;7.60;4.90;;;;;;;3.22;78.15;97420.09;104916;1270;71569;-25
2024/02/10 05:30:20;;;;;;;10.00;4.60;;;;;;;3.81;76.53;97425.95;105176;1265;61160;-25
2024/02/10 05:32:49;;;;;;;10.60;5.30;;;;;;;3.97;75.43;97427.65;105035;1264;61112;-25
2024/02/10 05:35:18;;;;;;;5.90;3.70;;;;;;;3.84;75.64;97428.35;105203;1270;72710;-24
2024/02/10 05:37:50;;;;;;;6.90;4.70;;;;;;;3.61;76.21;97431.64;104982;1269;74159;-24
2024/02/10 05:40:17;;;;;;;8.70;4.90;;;;;;;3.41;76.75;97430.78;104858;1270;71679;-25
2024/02/10 05:42:46;;;;;;;8.00;4.20;;;;;;;3.17;77.58;97430.42;105087;1264;61269;-25
2024/02/10 05:45:16;;;;;;;8.60;4.30;;;;;;;3.65;77.05;97428.64;105083;1264;61170;-25
2024/02/10 05:47:50;;;;;;;9.90;5.00;;;;;;;4.14;75.23;97425.09;104963;1268;73122;-24
2024/02/10 05:50:22;;;;;;;;;;;;;;;4.11;74.65;97428.27;104960;1267;73111;-24
2024/02/10 05:52:51;;;;;;;8.60;4.80;;;;;;;3.86;75.29;97428.66;105028;1269;70329;-24
2024/02/10 05:55:26;;;;;;;7.10;3.70;;;;;;;3.65;75.95;97429.81;104891;1271;61247;-25
2024/02/10 05:58:01;;;;;;;7.60;3.60;;;;;;;3.39;76.66;97433.55;105194;1270;61169;-24
2024/02/10 06:00:29;;;;;;;7.20;4.20;;;;;;;3.48;77.34;97432.48;105177;1268;72862;-24
2024/02/10 06:02:56;;;;;;;5.50;3.50;;;;;;;3.73;76.79;97431.54;105140;1267;74883;-24
2024/02/10 06:05:23;;;;;;;9.90;4.30;;;;;;;3.83;76.40;97429.27;105161;1263;73254;-24
2024/02/10 06:07:56;;;;;;;8.20;5.40;;;;;;;3.99;75.39;97431.73;105172;1270;61083;-24
2024/02/10 06:10:23;;;;;;;8.30;4.80;;;;;;;3.73;75.92;97433.09;105129;1266;61070;-24
2024/02/10 06:12:52;;;;;;;10.70;5.80;;;;;;;3.44;77.09;97434.52;105162;1266;73406;-24
2024/02/10 06:15:19;;;;;;;9.40;5.30;;;;;;;3.66;77.23;97436.53;104934;1267;72845;-24
2024/02/10 06:17:56;;;;;;;10.00;5.70;;;;;;;4.26;75.20;97434.74;105072;1264;71697;-24
2024/02/10 06:20:24;;;;;;;6.80;4.00;;;;;;;4.30;74.41;97434.08;104806;1272;61339;-24
2024/02/10 06:22:53;;;;;;;8.50;4.80;;;;;;;4.06;74.93;97435.50;105132;1264;61058;-24
2024/02/10 06:25:27;;;;;;;8.20;4.60;;;;;;;3.81;75.64;97436.66;104955;1264;71709;-24
2024/02/10 06:27:57;;;;;;;9.00;4.70;;;;;;;3.52;76.54;97444.38;105026;1279;74447;-24
2024/02/10 06:30:36;;;;;;;6.70;3.80;;;;;;;3.63;77.20;97444.23;104987;1263;72331;-24
2024/02/10 06:33:05;;;;;;;9.10;5.40;;;;;;;4.18;75.30;97442.92;104991;1264;61111;-24
2024/02/10 06:35:33;;;;;;;10.30;5.40;;;;;;;4.29;74.58;97444.84;105175;1277;61128;-24
2024/02/10 06:38:01;;;;;;;7.90;4.60;;;;;;;4.04;74.99;97446.09;104943;1269;72870;-24
2024/02/10 06:40:28;;;;;;;9.20;3.90;;;;;;;3.81;75.74;97443.96;105200;1264;74433;-24
2024/02/10 06:42:55;;;;;;;9.40;4.20;;;;;;;3.55;76.52;97447.94;105549;1258;72599;-24
2024/02/10 06:45:24;;;;;;;8.40;4.90;;;;;;;3.75;76.87;97445.50;105535;1260;61042;-24
2024/02/10 06:47:51;;;;;;;6.40;3.80;;;;;;;4.22;75.16;97446.95;105523;1267;61144;-24
2024/02/10 06:50:28;;;;;;;9.80;5.10;;;;;;;4.26;74.64;97448.64;105622;1259;73013;-23
2024/02/10 06:52:59;;;;;;;12.30;5.90;;;;;;;4.05;75.00;97448.42;105631;1260;74360;-24
2024/02/10 06:55:27;;;;;;;7.30;3.50;;;;;;;3.80;75.88;97450.11;105614;1258;71595;-24
2024/02/10 06:57:57;;;;;;;5.90;3.20;;;;;;;3.54;76.98;97457.27;105507;1260;61170;-24
2024/02/10 07:00:24;;;;;;;8.50;4.60;;;;;;;4.07;76.27;97452.77;105606;1255;61103;-24
2024/02/10 07:02:56;;;;;;;7.70;4.50;;;;;;;4.67;73.96;97456.17;105497;1260;73050;-23
2024/02/10 07:05:24;;;;;;;8.50;4.40;;;;;;;4.64;73.34;97454.39;105692;1262;74260;-23
2024/02/10 07:07:52;;;;;;;10.00;5.90;;;;;;;4.42;73.77;97454.61;105525;1263;72642;-24
2024/02/10 07:10:23;;;;;;;8.20;4.80;;;;;;;4.22;74.33;97457.62;105504;1260;61051;-24
2024/02/10 07:12:55;;;;;;;9.40;5.70;;;;;;;3.94;75.45;97455.20;105460;1271;61075;-24
2024/02/10 07:15:29;;;;;;;6.80;4.40;;;;;;;3.73;76.51;97460.45;105507;1257;72032;-24
2024/02/10 07:17:56;;;;;;;5.60;4.20;;;;;;;4.24;75.57;97458.95;105702;1268;74182;-24
2024/02/10 07:20:25;;;;;;;7.60;4.90;;;;;;;4.46;74.56;97460.85;105698;1259;73021;-24
2024/02/10 07:22:57;;;;;;;7.20;4.70;;;;;;;4.33;74.58;97463.06;105633;1257;61153;-24
2024/02/10 07:25:28;;;;;;;8.90;5.00;;;;;;;4.11;75.30;97463.94;105628;1261;61096;-24
2024/02/10 07:28:02;;;;;;;8.30;5.00;;;;;;;3.86;76.11;97460.60;105661;1260;72995;-23
2024/02/10 07:30:31;;;;;;;8.70;3.80;;;;;;;3.75;76.98;97467.30;105600;1257;74449;-24
2024/02/10 07:33:12;;;;;;;7.10;4.00;;;;;;;4.38;75.49;97466.61;105638;1257;72547;-24
2024/02/10 07:35:40;;;;;;;6.30;3.70;;;;;;;4.63;74.14;97464.06;105691;1260;61057;-24
2024/02/10 07:38:08;;;;;;;8.50;5.40;;;;;;;4.48;74.24;97458.73;105640;1256;61189;-24
2024/02/10 07:40:36;;;;;;;10.10;3.80;;;;;;;4.23;75.04;97457.54;105668;1257;72970;-24
2024/02/10 07:43:06;;;;;;;11.90;4.70;;;;;;;3.94;76.10;97455.35;105641;1257;74230;-24
2024/02/10 07:45:33;;;;;;;7.20;4.30;;;;;;;3.97;76.81;97455.65;105621;1261;72470;-24
2024/02/10 07:48:01;;;;;;;6.30;3.80;;;;;;;4.54;75.22;97454.31;105652;1257;61076;-24
2024/02/10 07:50:29;;;;;;;6.50;4.70;;;;;;;4.70;74.28;97458.52;105680;1260;61250;-24
2024/02/10 07:52:56;;;;;;;6.50;4.20;;;;;;;4.63;74.27;97457.89;105708;1260;73790;-24
2024/02/10 07:55:25;;;;;;;7.20;4.40;;;;;;;4.42;74.74;97456.52;105502;1257;74602;-24
2024/02/10 07:57:52;;;;;;;10.00;4.90;;;;;;;4.16;75.49;97453.42;105691;1257;72636;-24
2024/02/10 08:00:20;;;;;;;6.70;3.90;;;;;;;4.09;76.44;97450.16;105608;1258;61140;-25
2024/02/10 08:02:48;;;;;;;3.80;2.80;;;;;;;4.72;75.03;97452.70;105510;1257;61212;-24
2024/02/10 08:05:20;;;;;;;9.10;4.40;;;;;;;4.96;73.78;97455.91;105636;1260;73528;-24
2024/02/10 08:07:48;;;;;;;8.00;4.40;;;;;;;4.82;73.81;97456.12;105454;1260;74296;-24
2024/02/10 08:10:18;;;;;;;6.20;4.30;;;;;;;4.59;74.40;97453.72;105669;1260;72684;-24
2024/02/10 08:12:48;;;;;;;8.30;5.00;;;;;;;4.33;75.35;97455.32;105650;1258;61070;-24
2024/02/10 08:15:15;;;;;;;4.30;2.80;;;;;;;4.14;76.39;97455.30;105614;1258;61176;-24
2024/02/10 08:17:43;;;;;;;5.80;3.80;;;;;;;4.63;75.46;97451.89;105687;1257;73508;-24
2024/02/10 08:20:11;;;;;;;5.80;3.60;;;;;;;4.99;74.19;97453.70;105609;1258;74265;-25
2024/02/10 08:22:38;;;;;;;6.20;4.50;;;;;;;4.95;73.76;97455.13;105578;1260;72625;-25
2024/02/10 08:25:09;;;;;;;5.80;3.60;;;;;;;4.70;74.37;97452.64;105629;1259;61095;-26
2024/02/10 08:27:39;;;;;;;7.60;4.80;;;;;;;4.44;75.29;97448.95;105264;1257;61230;-26
2024/02/10 08:30:15;;;;;;;5.10;3.10;;;;;;;4.35;76.09;97455.84;105591;1257;73885;-25
2024/02/10 08:32:42;;;;;;;7.20;4.10;;;;;;;4.87;74.81;97457.80;105456;1263;74157;-26
2024/02/10 08:35:11;;;;;;;7.70;4.80;;;;;;;5.09;73.81;97459.94;105261;1260;72606;-26
2024/02/10 08:37:39;;;;;;;5.50;4.00;;;;;;;4.97;73.76;97463.34;105410;1258;61150;-26
2024/02/10 08:40:09;;;;;;;5.00;3.60;;;;;;;4.73;74.42;97461.38;105565;1257;61170;-26
2024/02/10 08:42:37;;;;;;;4.80;3.10;;;;;;;4.50;75.18;97463.56;105438;1264;73761;-26
2024/02/10 08:45:05;;;;;;;4.00;2.70;;;;;;;4.36;76.13;97468.82;105494;1257;74652;-25
2024/02/10 08:47:32;;;;;;;6.50;4.10;;;;;;;5.01;74.93;97471.23;105657;1258;72628;-27
2024/02/10 08:50:01;;;;;;;5.90;4.40;;;;;;;5.39;73.32;97469.80;105651;1257;61113;-25
2024/02/10 08:52:28;;;;;;;6.60;4.90;;;;;;;5.37;73.08;97470.98;105627;1255;61108;-25
2024/02/10 08:54:56;;;;;;;6.00;4.30;;;;;;;5.19;73.44;97470.83;105585;1257;73812;-26
2024/02/10 08:57:25;;;;;;;5.90;3.50;;;;;;;4.96;74.08;97474.63;105702;1257;74670;-26
2024/02/10 08:59:53;;;;;;;5.40;3.50;;;;;;;4.60;75.25;97474.57;105575;1260;72506;-25
2024/02/10 09:02:23;;;;;;;4.80;3.70;;;;;;;5.05;75.05;97475.75;105590;1257;61052;-26
2024/02/10 09:04:53;;;;;;;5.60;3.30;;;;;;;5.48;73.33;97479.54;105547;1269;61945;-25
2024/02/10 09:07:20;;;;;;;5.50;3.90;;;;;;;5.54;72.83;97480.08;105408;1257;75392;-25
2024/02/10 09:09:48;;;;;;;5.40;3.20;;;;;;;5.35;73.25;97480.77;105615;1258;76018;-26
2024/02/10 09:12:16;;;;;;;5.30;4.00;;;;;;;5.15;73.84;97482.46;105611;1257;72557;-25
2024/02/10 09:14:43;;;;;;;5.20;2.90;;;;;;;4.90;74.65;97485.91;105588;1258;61077;-26
2024/02/10 09:17:10;;;;;;;5.00;3.00;;;;;;;5.07;75.11;97487.61;105528;1255;61099;-26
2024/02/10 09:19:38;;;;;;;4.20;2.80;;;;;;;5.62;73.32;97491.16;105311;1257;72827;-25
2024/02/10 09:22:05;;;;;;;4.50;3.00;;;;;;;5.65;72.70;97484.48;105644;1261;76121;-25
2024/02/10 09:24:33;;;;;;;4.30;2.80;;;;;;;5.48;73.35;97482.48;105549;1256;72474;-26
2024/02/10 09:27:09;;;;;;;3.20;2.40;;;;;;;5.14;74.25;97482.75;105515;1258;61050;-25
2024/02/10 09:29:36;;;;;;;3.30;2.40;;;;;;;4.86;75.51;97483.84;105581;1256;61198;-26
2024/02/10 09:32:03;;;;;;;4.20;2.70;;;;;;;5.15;75.44;97482.46;105645;1260;73531;-25
2024/02/10 09:34:31;;;;;;;5.70;2.90;;;;;;;5.65;73.63;97484.16;105276;1257;74440;-25
2024/02/10 09:36:59;;;;;;;5.70;3.40;;;;;;;5.65;73.05;97486.19;105551;1255;72342;-25
2024/02/10 09:39:26;;;;;;;4.10;2.70;;;;;;;5.52;73.38;97490.09;105608;1260;62117;-26
2024/02/10 09:41:56;;;;;;;3.20;2.60;;;;;;;5.24;73.98;97485.38;105645;1256;61142;-26
2024/02/10 09:44:23;;;;;;;3.90;2.80;;;;;;;4.90;75.68;97481.48;105605;1257;72897;-26
2024/02/10 09:46:50;;;;;;;4.60;3.20;;;;;;;5.32;74.72;97486.42;105182;1257;74113;-25
2024/02/10 09:49:18;;;;;;;4.20;2.80;;;;;;;5.55;73.75;97488.95;105615;1257;73922;-25
2024/02/10 09:51:46;;;;;;;5.10;2.70;;;;;;;5.44;73.77;97485.23;105643;1258;61174;-25
2024/02/10 09:54:13;;;;;;;3.00;2.30;;;;;;;5.18;74.82;97478.50;105573;1258;61166;-26
2024/02/10 09:56:41;;;;;;;3.10;2.30;;;;;;;4.88;75.90;97478.02;105698;1257;72599;-26
2024/02/10 09:59:12;;;;;;;3.70;2.80;;;;;;;5.12;75.88;97474.84;105675;1258;74338;-25
2024/02/10 10:01:39;;;;;;;5.40;3.00;;;;;;;5.55;74.48;97480.02;105559;1257;72754;-25
2024/02/10 10:04:10;;;;;;;5.50;3.80;;;;;;;5.63;74.00;97480.20;105612;1260;61119;-25
2024/02/10 10:06:43;;;;;;;5.90;3.40;;;;;;;5.45;74.22;97477.70;105655;1260;61207;-25
2024/02/10 10:09:18;;;;;;;6.10;4.60;;;;;;;5.26;74.77;97479.01;105424;1257;75403;-25
2024/02/10 10:11:45;;;;;;;5.90;3.40;;;;;;;5.07;75.52;97481.96;105453;1257;75794;-26
2024/02/10 10:14:16;;;;;;;5.40;4.30;;;;;;;5.54;74.96;97478.36;105334;1263;71481;-25
2024/02/10 10:16:57;;;;;;;4.90;3.30;;;;;;;5.99;73.41;97476.58;105496;1257;61146;-25
2024/02/10 10:19:29;;;;;;;3.10;2.70;;;;;;;5.96;72.90;97475.83;105354;1257;61350;-25
2024/02/10 10:21:57;;;;;;;4.70;3.50;;;;;;;5.67;73.71;97469.64;105531;1257;73819;-25
2024/02/10 10:24:26;;;;;;;7.10;3.60;;;;;;;5.43;74.42;97462.23;105631;1258;73217;-25
2024/02/10 10:26:54;;;;;;;3.00;2.30;;;;;;;5.26;75.45;97458.70;105605;1257;72663;-25
2024/02/10 10:29:22;;;;;;;3.40;2.90;;;;;;;5.77;74.51;97468.11;105623;1263;62250;-25
2024/02/10 10:31:49;;;;;;;5.10;3.60;;;;;;;6.19;72.88;97475.55;105640;1258;61179;-25
2024/02/10 10:34:20;;;;;;;7.90;5.10;;;;;;;6.24;72.19;97466.96;105636;1258;75694;-25
2024/02/10 10:36:48;;;;;;;7.00;4.60;;;;;;;5.97;72.74;97460.59;105216;1257;73295;-25
2024/02/10 10:39:15;;;;;;;6.60;4.10;;;;;;;5.75;73.63;97456.98;105515;1263;72704;-25
2024/02/10 10:41:44;;;;;;;5.90;4.20;;;;;;;5.48;74.50;97456.51;105574;1256;61062;-26
2024/02/10 10:44:12;;;;;;;6.40;4.10;;;;;;;5.47;75.17;97451.89;105210;1263;61265;-25
2024/02/10 10:46:41;;;;;;;8.40;5.40;;;;;;;5.92;74.02;97451.19;105287;1257;75526;-25
2024/02/10 10:49:09;;;;;;;9.30;5.70;;;;;;;6.09;73.24;97461.77;105554;1261;74250;-25
2024/02/10 10:51:52;;;;;;;6.40;4.40;;;;;;;5.86;73.61;97460.48;105630;1257;72441;-25
2024/02/10 10:54:19;;;;;;;6.00;4.10;;;;;;;5.60;74.14;97464.98;105617;1260;61124;-25
2024/02/10 10:56:48;;;;;;;4.30;2.80;;;;;;;5.34;75.14;97460.58;105700;1255;61176;-26
2024/02/10 10:59:15;;;;;;;3.60;2.50;;;;;;;5.49;75.84;97461.55;105644;1257;73832;-26
2024/02/10 11:01:42;;;;;;;4.50;3.00;;;;;;;5.92;74.75;97456.84;105646;1257;74280;-25
2024/02/10 11:04:14;;;;;;;5.40;3.50;;;;;;;6.01;74.00;97448.86;105646;1257;72391;-25
2024/02/10 11:06:44;;;;;;;5.30;3.70;;;;;;;5.95;74.17;97452.27;105576;1256;61170;-25
2024/02/10 11:09:20;;;;;;;7.00;4.40;;;;;;;5.82;74.35;97455.25;105634;1260;61160;-25
2024/02/10 11:11:47;;;;;;;3.90;3.10;;;;;;;5.58;75.29;97453.60;105632;1257;73801;-25
2024/02/10 11:14:14;;;;;;;5.70;3.60;;;;;;;6.04;74.51;97450.50;105635;1257;76174;-25
2024/02/10 11:16:43;;;;;;;4.70;3.40;;;;;;;6.36;73.31;97446.98;105642;1258;72490;-25
2024/02/10 11:19:11;;;;;;;4.30;3.30;;;;;;;6.40;72.95;97450.80;105638;1257;61145;-25
2024/02/10 11:21:41;;;;;;;3.10;2.80;;;;;;;6.17;73.27;97450.84;105504;1257;61109;-25
2024/02/10 11:24:15;;;;;;;3.70;2.90;;;;;;;5.90;74.22;97450.45;105733;1257;73623;-25
2024/02/10 11:26:42;;;;;;;3.30;2.50;;;;;;;5.66;75.37;97449.63;105598;1258;73092;-25
2024/02/10 11:29:13;;;;;;;3.60;2.90;;;;;;;6.16;74.48;97451.13;105617;1257;72799;-25
2024/02/10 11:31:41;;;;;;;5.10;3.70;;;;;;;6.40;73.31;97450.05;105628;1257;61115;-25
2024/02/10 11:34:19;;;;;;;5.30;4.00;;;;;;;6.30;73.37;97449.80;105580;1257;61144;-25
2024/02/10 11:36:54;;;;;;;5.20;3.80;;;;;;;6.01;74.23;97449.33;105236;1257;73882;-25
2024/02/10 11:39:23;;;;;;;9.00;5.40;;;;;;;5.76;74.86;97448.12;105331;1257;74309;-25
2024/02/10 11:42:00;;;;;;;3.50;2.40;;;;;;;5.53;76.33;97444.71;105502;1256;71210;-25
2024/02/10 11:44:28;;;;;;;6.00;3.80;;;;;;;6.05;75.16;97445.05;105567;1257;61916;-25
2024/02/10 11:46:59;;;;;;;3.90;3.10;;;;;;;6.26;74.38;97444.92;105720;1255;61162;-25
2024/02/10 11:49:27;;;;;;;6.90;5.00;;;;;;;6.27;74.30;97446.27;105652;1257;73632;-25
2024/02/10 11:51:57;;;;;;;5.70;4.30;;;;;;;6.18;74.66;97446.38;105523;1258;74894;-25
2024/02/10 11:54:27;;;;;;;2.10;1.60;;;;;;;5.96;75.32;97445.96;105573;1258;72660;-25
2024/02/10 11:56:57;;;;;;;5.80;4.00;;;;;;;6.32;75.10;97446.80;105631;1256;61156;-25
2024/02/10 11:59:25;;;;;;;3.60;2.80;;;;;;;6.86;73.35;97447.30;105629;1258;61133;-25
2024/02/10 12:01:53;;;;;;;5.70;4.20;;;;;;;6.95;72.64;97445.99;105552;1257;73794;-25
2024/02/10 12:04:20;;;;;;;4.90;4.00;;;;;;;6.74;73.20;97441.14;105614;1257;75405;-25
2024/02/10 12:06:50;;;;;;;7.20;4.70;;;;;;;6.49;74.17;97438.73;105607;1258;72659;-25
2024/02/10 12:09:19;;;;;;;6.20;4.30;;;;;;;6.25;75.26;97445.75;105608;1257;62041;-25
2024/02/10 12:11:46;;;;;;;7.80;4.50;;;;;;;6.91;73.83;97448.77;105222;1262;61054;-25
2024/02/10 12:14:14;;;;;;;11.10;4.40;;;;;;;7.22;72.28;97449.38;105600;1254;75719;-25
2024/02/10 12:16:43;;;;;;;6.20;4.20;;;;;;;7.12;72.31;97445.30;105656;1258;75094;-25
2024/02/10 12:19:11;;;;;;;6.90;4.80;;;;;;;6.97;72.85;97447.73;105669;1257;73877;-25
2024/02/10 12:21:41;;;;;;;5.90;4.70;;;;;;;6.72;73.52;97448.79;105666;1257;61157;-25
2024/02/10 12:24:11;;;;;;;5.60;3.60;;;;;;;6.57;74.70;97448.70;105659;1260;61132;-25
2024/02/10 12:26:38;;;;;;;4.80;4.10;;;;;;;7.20;73.50;97448.83;105626;1257;73801;-25
2024/02/10 12:29:09;;;;;;;6.70;4.40;;;;;;;7.60;71.88;97448.63;105625;1257;73115;-25
2024/02/10 12:31:40;;;;;;;6.50;4.90;;;;;;;7.58;71.82;97451.93;105625;1257;74513;-25
2024/02/10 12:34:09;;;;;;;6.00;4.50;;;;;;;7.34;72.26;97454.30;105573;1258;61267;-25
2024/02/10 12:36:36;;;;;;;7.60;5.10;;;;;;;7.05;73.08;97453.17;105651;1260;61996;-25
2024/02/10 12:39:05;;;;;;;8.70;5.70;;;;;;;6.89;73.57;97454.51;105708;1258;73738;-25
2024/02/10 12:41:32;;;;;;;6.40;4.60;;;;;;;6.78;74.70;97453.77;105617;1260;74104;-25
2024/02/10 12:44:00;;;;;;;10.70;7.30;;;;;;;7.45;73.70;97457.86;105653;1257;72773;-25
2024/02/10 12:46:28;;;;;;;9.90;7.20;;;;;;;7.68;72.54;97456.39;105533;1255;61183;-25
2024/02/10 12:48:55;;;;;;;11.80;6.50;;;;;;;7.64;72.61;97457.91;105651;1260;61163;-25
2024/02/10 12:51:25;;;;;;;8.20;5.10;;;;;;;7.59;72.49;97457.55;105661;1257;73670;-26
2024/02/10 12:53:54;;;;;;;8.60;6.30;;;;;;;7.41;73.05;97464.21;105656;1257;74379;-26
2024/02/10 12:56:24;;;;;;;6.10;4.50;;;;;;;7.21;73.94;97467.77;105642;1255;74488;-26
2024/02/10 12:58:51;;;;;;;7.50;5.00;;;;;;;7.84;73.25;97468.66;105637;1256;61029;-25
2024/02/10 13:01:19;;;;;;;8.30;5.90;;;;;;;8.48;71.60;97468.77;105664;1257;61169;-25
2024/02/10 13:03:47;;;;;;;32.60;16.80;;;;;;;8.56;70.93;97467.29;105671;1260;75424;-28